createdAt,value
2022-10-19T08:14:56.209Z,8.40
2022-10-19T08:17:27.873Z,6.93
2022-10-19T08:20:01.049Z,7.40
2022-10-19T08:22:33.081Z,7.40
2022-10-19T08:25:05.858Z,6.83
2022-10-19T08:27:37.543Z,6.77
2022-10-19T08:30:09.845Z,6.83
2022-10-19T08:32:41.549Z,6.03
2022-10-19T08:35:14.595Z,5.80
2022-10-19T08:37:46.497Z,7.00
2022-10-19T08:40:19.292Z,6.83
2022-10-19T08:42:52.836Z,6.10
2022-10-19T08:45:38.944Z,6.07
2022-10-19T08:48:19.058Z,6.07
2022-10-19T08:50:52.087Z,5.80
2022-10-19T08:53:27.235Z,6.20
2022-10-19T08:56:05.008Z,6.60
2022-10-19T08:58:45.539Z,6.20
2022-10-19T09:01:23.927Z,6.00
2022-10-19T09:03:58.933Z,5.67
2022-10-19T09:06:34.667Z,5.53
2022-10-19T09:09:06.363Z,5.70
2022-10-19T09:11:39.288Z,5.70
2022-10-19T09:14:12.928Z,5.60
2022-10-19T09:16:44.571Z,5.90
2022-10-19T09:19:20.732Z,6.20
2022-10-19T09:21:55.460Z,5.77
2022-10-19T09:24:29.037Z,5.67
2022-10-19T09:27:01.238Z,5.40
2022-10-19T09:29:37.082Z,5.23
2022-10-19T09:32:12.879Z,5.60
2022-10-19T09:34:45.312Z,6.70
2022-10-19T09:37:25.685Z,5.70
2022-10-19T09:39:58.116Z,6.20
2022-10-19T09:42:31.023Z,5.80
2022-10-19T09:45:11.161Z,5.60
2022-10-19T09:47:42.875Z,5.80
2022-10-19T09:50:16.797Z,5.70
2022-10-19T09:52:50.171Z,5.60
2022-10-19T09:55:29.458Z,5.73
2022-10-19T09:58:03.139Z,5.47
2022-10-19T10:00:36.646Z,5.60
2022-10-19T10:03:08.502Z,5.67
2022-10-19T10:05:40.234Z,5.33
2022-10-19T10:08:14.511Z,5.37
2022-10-19T10:10:46.879Z,5.80
2022-10-19T10:13:19.503Z,7.80
2022-10-19T10:15:56.052Z,6.77
2022-10-19T10:18:28.158Z,7.07
2022-10-19T10:21:01.865Z,7.07
2022-10-19T10:23:35.012Z,5.80
2022-10-19T10:26:16.213Z,5.80
2022-10-19T10:28:48.592Z,6.00
2022-10-19T10:31:22.289Z,5.23
2022-10-19T10:33:55.790Z,5.17
2022-10-19T10:36:27.957Z,5.60
2022-10-19T10:39:05.670Z,5.57
2022-10-19T10:41:37.901Z,5.87
2022-10-19T10:44:17.302Z,6.53
2022-10-19T10:46:52.738Z,5.63
2022-10-19T10:49:25.406Z,5.47
2022-10-19T10:51:57.591Z,5.70
2022-10-19T10:54:31.036Z,5.20
2022-10-19T10:57:11.217Z,5.70
2022-10-19T10:59:51.897Z,5.73
2022-10-19T11:02:37.063Z,5.40
2022-10-19T11:05:11.889Z,4.50
2022-10-19T11:07:44.625Z,4.47
2022-10-19T11:10:22.403Z,4.77
2022-10-19T11:12:58.604Z,4.50
2022-10-19T11:15:31.859Z,4.70
2022-10-19T11:18:11.553Z,5.13
2022-10-19T11:20:58.131Z,4.43
2022-10-19T11:23:37.063Z,4.60
2022-10-19T11:26:20.019Z,4.63
2022-10-19T11:28:59.065Z,5.10
2022-10-19T11:31:36.850Z,4.90
2022-10-19T11:34:16.086Z,5.00
2022-10-19T11:36:50.837Z,5.03
2022-10-19T11:39:35.079Z,4.63
2022-10-19T11:42:11.673Z,4.87
2022-10-19T11:44:49.939Z,4.30
2022-10-19T11:47:34.230Z,4.53
2022-10-19T11:50:27.110Z,4.80
2022-10-19T11:53:06.846Z,3.90
2022-10-19T11:55:41.971Z,4.77
2022-10-19T11:58:35.294Z,4.27
2022-10-19T12:01:09.983Z,3.83
2022-10-19T12:04:20.218Z,4.30
2022-10-19T12:06:57.180Z,3.60
2022-10-19T12:09:43.301Z,3.40
2022-10-19T12:12:21.712Z,4.23
2022-10-19T12:14:56.934Z,4.00
2022-10-19T12:17:30.681Z,3.87
2022-10-19T12:20:03.279Z,3.70
2022-10-19T12:22:34.936Z,3.83
2022-10-19T12:25:06.965Z,3.90
2022-10-19T12:27:38.976Z,4.13
2022-10-19T12:30:15.506Z,3.40
2022-10-19T12:32:58.316Z,3.20
2022-10-19T12:35:41.085Z,3.53
2022-10-19T12:38:19.102Z,4.07
2022-10-19T12:40:53.278Z,3.57
2022-10-19T12:43:27.615Z,3.30
2022-10-19T12:46:07.164Z,3.17
2022-10-19T12:48:39.025Z,3.13
2022-10-19T12:51:12.669Z,3.70
2022-10-19T12:53:46.284Z,3.93
2022-10-19T12:56:19.739Z,3.00
2022-10-19T12:58:55.717Z,3.80
2022-10-19T13:01:29.461Z,3.23
2022-10-19T13:04:11.084Z,3.20
2022-10-19T13:06:43.260Z,4.10
2022-10-19T13:09:23.508Z,3.90
2022-10-19T13:12:26.728Z,3.37
2022-10-19T13:14:58.521Z,3.60
2022-10-19T13:17:41.224Z,3.47
2022-10-19T13:20:50.287Z,3.40
2022-10-19T13:23:39.442Z,3.97
2022-10-19T13:26:24.785Z,3.37
2022-10-19T13:28:56.605Z,3.30
2022-10-19T13:31:29.026Z,3.43
2022-10-19T13:34:02.021Z,3.50
2022-10-19T13:36:33.693Z,3.20
2022-10-19T13:39:15.111Z,3.70
2022-10-19T13:41:50.655Z,3.90
2022-10-19T13:44:24.406Z,3.53
2022-10-19T13:47:33.310Z,4.03
2022-10-19T13:50:35.677Z,4.20
2022-10-19T13:53:28.530Z,4.00
2022-10-19T13:56:29.985Z,3.70
2022-10-19T13:59:32.239Z,4.17
2022-10-19T14:02:43.373Z,3.43
2022-10-19T14:05:24.843Z,3.60
2022-10-19T14:08:03.564Z,3.47
2022-10-19T14:10:56.190Z,3.50
2022-10-19T14:13:26.864Z,3.80
2022-10-19T14:15:59.398Z,3.77
2022-10-19T14:18:31.789Z,3.10
2022-10-19T14:21:05.044Z,2.77
2022-10-19T14:23:38.522Z,4.00
2022-10-19T14:26:13.876Z,3.67
2022-10-19T14:28:45.526Z,3.43
2022-10-19T14:31:18.399Z,3.50
2022-10-19T14:33:51.155Z,3.47
2022-10-19T14:36:23.727Z,3.07
2022-10-19T14:38:56.756Z,2.70
2022-10-19T14:41:31.908Z,3.10
2022-10-19T14:44:27.656Z,3.10
2022-10-19T14:47:00.642Z,2.63
2022-10-19T14:49:32.284Z,3.10
2022-10-19T14:52:03.979Z,2.73
2022-10-19T14:54:38.776Z,2.53
2022-10-19T14:57:12.410Z,2.90
2022-10-19T14:59:45.273Z,3.40
2022-10-19T15:02:18.819Z,2.73
2022-10-19T15:04:50.481Z,2.80
2022-10-19T15:07:24.426Z,2.80
2022-10-19T15:09:59.278Z,2.57
2022-10-19T15:12:35.150Z,2.70
2022-10-19T15:15:09.032Z,2.97
2022-10-19T15:17:49.819Z,3.10
2022-10-19T15:20:26.587Z,2.63
2022-10-19T15:22:58.420Z,3.03
2022-10-19T15:25:33.090Z,2.80
2022-10-19T15:28:20.731Z,3.10
2022-10-19T15:31:00.644Z,3.80
2022-10-19T15:33:37.216Z,3.00
2022-10-19T15:36:09.961Z,2.87
2022-10-19T15:38:41.595Z,2.97
2022-10-19T15:41:18.384Z,2.80
2022-10-19T15:43:50.791Z,3.70
2022-10-19T15:46:24.632Z,2.93
2022-10-19T15:48:56.588Z,2.90
2022-10-19T15:51:46.088Z,2.93
2022-10-19T15:54:18.069Z,2.97
2022-10-19T15:56:52.236Z,3.03
2022-10-19T15:59:23.892Z,3.17
2022-10-19T16:01:56.341Z,2.40
2022-10-19T16:04:28.131Z,3.20
2022-10-19T16:06:59.805Z,3.40
2022-10-19T16:09:31.513Z,5.50
2022-10-19T16:12:04.744Z,3.83
2022-10-19T16:14:36.774Z,4.77
2022-10-19T16:17:09.458Z,4.93
2022-10-19T16:19:41.184Z,3.53
2022-10-19T16:22:13.258Z,4.37
2022-10-19T16:24:44.905Z,5.50
2022-10-19T16:27:17.893Z,5.53
2022-10-19T16:29:49.539Z,4.27
2022-10-19T16:32:21.202Z,11.87
2022-10-19T16:34:52.822Z,7.97
2022-10-19T16:37:24.477Z,5.77
2022-10-19T16:39:56.131Z,3.67
2022-10-19T16:42:30.560Z,4.60
2022-10-19T16:45:02.374Z,3.50
2022-10-19T16:47:34.046Z,4.07
2022-10-19T16:50:06.394Z,3.37
2022-10-19T16:52:38.309Z,3.13
2022-10-19T16:55:10.238Z,2.90
2022-10-19T16:57:43.275Z,4.27
2022-10-19T17:00:15.001Z,4.40
2022-10-19T17:02:46.799Z,5.70
2022-10-19T17:05:18.510Z,4.33
2022-10-19T17:07:50.167Z,5.50
2022-10-19T17:10:21.833Z,10.07
2022-10-19T17:12:54.859Z,5.47
2022-10-19T17:15:43.209Z,4.30
2022-10-19T17:18:15.124Z,3.60
2022-10-19T17:20:46.973Z,4.50
2022-10-19T17:23:18.636Z,4.57
2022-10-19T17:25:50.295Z,4.40
2022-10-19T17:28:25.483Z,4.80
2022-10-19T17:31:03.163Z,4.37
2022-10-19T17:33:35.335Z,4.90
2022-10-19T17:36:07.834Z,5.00
2022-10-19T17:38:39.655Z,5.27
2022-10-19T17:41:12.121Z,5.23
2022-10-19T17:43:46.238Z,4.97
2022-10-19T17:46:18.697Z,5.33
2022-10-19T17:48:50.331Z,4.83
2022-10-19T17:51:22.718Z,4.73
2022-10-19T17:53:55.864Z,5.03
2022-10-19T17:56:27.639Z,4.47
2022-10-19T17:59:00.635Z,5.07
2022-10-19T18:01:32.310Z,4.70
2022-10-19T18:04:04.469Z,5.13
2022-10-19T18:06:36.687Z,4.30
2022-10-19T18:09:08.933Z,4.63
2022-10-19T18:11:41.495Z,3.83
2022-10-19T18:14:14.509Z,5.23
2022-10-19T18:16:46.346Z,4.90
2022-10-19T18:19:17.971Z,5.37
2022-10-19T18:21:49.608Z,4.63
2022-10-19T18:24:21.254Z,4.43
2022-10-19T18:26:52.904Z,4.73
2022-10-19T18:29:25.979Z,4.30
2022-10-19T18:31:57.698Z,4.30
2022-10-19T18:34:29.486Z,4.63
2022-10-19T18:37:01.150Z,9.07
2022-10-19T18:39:32.811Z,5.77
2022-10-19T18:42:04.455Z,6.37
2022-10-19T18:44:37.428Z,5.07
2022-10-19T18:47:09.074Z,5.03
2022-10-19T18:49:40.699Z,6.03
2022-10-19T18:52:12.358Z,5.37
2022-10-19T18:54:43.994Z,5.43
2022-10-19T18:57:15.673Z,5.70
2022-10-19T18:59:48.880Z,4.10
2022-10-19T19:02:22.712Z,3.83
2022-10-19T19:04:54.504Z,4.83
2022-10-19T19:07:26.161Z,4.60
2022-10-19T19:09:57.793Z,4.50
2022-10-19T19:12:29.434Z,4.30
2022-10-19T19:15:02.411Z,4.13
2022-10-19T19:17:34.091Z,4.80
2022-10-19T19:20:06.406Z,4.37
2022-10-19T19:22:38.278Z,5.60
2022-10-19T19:25:09.984Z,4.33
2022-10-19T19:27:41.643Z,4.00
2022-10-19T19:30:14.688Z,4.20
2022-10-19T19:32:46.342Z,3.67
2022-10-19T19:35:17.973Z,4.33
2022-10-19T19:37:49.618Z,4.00
2022-10-19T19:40:21.273Z,3.90
2022-10-19T19:42:52.935Z,3.67
2022-10-19T19:45:25.941Z,4.03
2022-10-19T19:47:57.622Z,5.03
2022-10-19T19:50:29.323Z,4.30
2022-10-19T19:53:01.260Z,4.17
2022-10-19T19:55:36.673Z,4.40
2022-10-19T19:58:10.612Z,3.73
2022-10-19T20:00:43.607Z,3.70
2022-10-19T20:03:15.245Z,4.20
2022-10-19T20:05:46.883Z,3.73
2022-10-19T20:08:18.512Z,3.77
2022-10-19T20:10:50.162Z,4.00
2022-10-19T20:13:21.797Z,3.90
2022-10-19T20:15:54.798Z,4.00
2022-10-19T20:18:26.411Z,4.10
2022-10-19T20:21:00.924Z,4.57
2022-10-19T20:23:32.729Z,3.97
2022-10-19T20:26:04.479Z,3.97
2022-10-19T20:28:36.085Z,4.20
2022-10-19T20:31:09.987Z,4.60
2022-10-19T20:33:42.446Z,4.40
2022-10-19T20:36:15.339Z,4.53
2022-10-19T20:38:47.843Z,4.03
2022-10-19T20:41:20.197Z,3.93
2022-10-19T20:43:51.836Z,4.20
2022-10-19T20:46:25.816Z,4.73
2022-10-19T20:48:58.380Z,3.83
2022-10-19T20:51:32.031Z,4.20
2022-10-19T20:54:05.245Z,3.70
2022-10-19T20:56:37.929Z,3.70
2022-10-19T20:59:11.531Z,3.67
2022-10-19T21:01:44.805Z,4.17
2022-10-19T21:04:16.586Z,3.83
2022-10-19T21:06:49.024Z,3.87
2022-10-19T21:09:21.574Z,4.07
2022-10-19T21:11:53.234Z,4.63
2022-10-19T21:14:28.322Z,4.20
2022-10-19T21:17:01.640Z,4.10
2022-10-19T21:19:33.255Z,4.20
2022-10-19T21:22:04.894Z,4.10
2022-10-19T21:24:36.563Z,4.37
2022-10-19T21:27:08.455Z,4.70
2022-10-19T21:29:40.280Z,4.30
2022-10-19T21:32:13.275Z,4.67
2022-10-19T21:34:44.912Z,4.40
2022-10-19T21:37:16.551Z,4.60
2022-10-19T21:39:48.172Z,4.23
2022-10-19T21:42:19.807Z,4.50
2022-10-19T21:44:54.009Z,4.60
2022-10-19T21:47:34.372Z,4.37
2022-10-19T21:50:07.556Z,4.70
2022-10-19T21:52:39.210Z,4.60
2022-10-19T21:55:10.966Z,5.53
2022-10-19T21:57:42.636Z,4.60
